Portal de Información Aeronáutica de la República Argentina

World News


Aviation Week - Aerospace Defense, Business & Commercial News

To list an event, send information in calendar format to Donna Thomas at donna.thomas@aviationweek.com. For a complete list of Aviation Week Network’s upcoming events, and to register, visit www.aviationweek.com/events (Bold type indicates new calendar listing.)

read more

Posted: November 27, 2017, 9:55 pm
Garmin International celebrated delivery of its one millionth certified avionics product from its manufacturing facility in Olathe, Kansas, the company said.

read more

Posted: November 27, 2017, 9:55 pm
James Brown Jr., former Hartzell Propeller Chairman, has died. Brown served as a board member of the General Aviation Manufacturers Association from 1998-2008.

read more

Posted: November 27, 2017, 9:55 pm
Jet Aviation, along with its partner, Al Mulia Business Group, celebrated the opening of its new 600-sq.-meter fixed base operation at the shared terminal at Dubai South during the 2017 Dubai Airshow, the company reports.

read more

Posted: November 27, 2017, 9:55 pm
Brendan Lodge has joined Jet Support Services as aircraft acquisitions specialist and will be based at JSSI’s Farnborough

read more

Posted: November 27, 2017, 9:55 pm

Aviation Week - Aerospace Defense, Business & Commercial News

To list an event, send information in calendar format to Donna Thomas at donna.thomas@aviationweek.com. For a complete list of Aviation Week Network’s upcoming events, and to register, visit www.aviationweek.com/events (Bold type indicates new calendar listing.)

read more

Posted: November 27, 2017, 9:55 pm
Garmin International celebrated delivery of its one millionth certified avionics product from its manufacturing facility in Olathe, Kansas, the company said.

read more

Posted: November 27, 2017, 9:55 pm
James Brown Jr., former Hartzell Propeller Chairman, has died. Brown served as a board member of the General Aviation Manufacturers Association from 1998-2008.

read more

Posted: November 27, 2017, 9:55 pm
Jet Aviation, along with its partner, Al Mulia Business Group, celebrated the opening of its new 600-sq.-meter fixed base operation at the shared terminal at Dubai South during the 2017 Dubai Airshow, the company reports.

read more

Posted: November 27, 2017, 9:55 pm
Brendan Lodge has joined Jet Support Services as aircraft acquisitions specialist and will be based at JSSI’s Farnborough

read more

Posted: November 27, 2017, 9:55 pm

Available data for SABE from the past 2 hours

METAR
SABE 250700Z 16004KT 110V200 6000 -DZ OVC007 17/15 Q1010
SABE 250600Z 14006KT 6000 -DZ SCT007 OVC011 17/15 Q1011
TAF
TAF SABE 250500Z 2506/2606 14010KT 6000 BR BKN008 OVC015 TX17/2519Z TN14/2510Z BECMG 2508/2510 2000 DZ BR BKN003 OVC008 BECMG 2512/2515 16010KT 5000 RA BKN006 OVC010 BECMG 2520/2523 20005KT 9999 BKN020